sensor_id;sensor_type;location;lat;lon;timestamp;P1;durP1;ratioP1;P2;durP2;ratioP2
23555;SDS011;11956;53.184;8.578;2023-02-28T00:02:48;8.50;;;4.68;;
23555;SDS011;11956;53.184;8.578;2023-02-28T00:05:49;11.57;;;4.90;;
23555;SDS011;11956;53.184;8.578;2023-02-28T00:08:49;8.77;;;4.43;;
23555;SDS011;11956;53.184;8.578;2023-02-28T00:11:50;9.38;;;5.00;;
23555;SDS011;11956;53.184;8.578;2023-02-28T00:14:51;10.07;;;5.85;;
23555;SDS011;11956;53.184;8.578;2023-02-28T00:17:52;10.52;;;6.35;;
23555;SDS011;11956;53.184;8.578;2023-02-28T00:20:53;9.77;;;5.60;;
23555;SDS011;11956;53.184;8.578;2023-02-28T00:23:54;10.88;;;4.95;;
23555;SDS011;11956;53.184;8.578;2023-02-28T00:26:55;9.40;;;4.28;;
23555;SDS011;11956;53.184;8.578;2023-02-28T00:29:56;8.88;;;4.55;;
23555;SDS011;11956;53.184;8.578;2023-02-28T00:32:57;7.38;;;4.50;;
23555;SDS011;11956;53.184;8.578;2023-02-28T00:36:07;8.85;;;4.50;;
23555;SDS011;11956;53.184;8.578;2023-02-28T00:39:10;7.43;;;3.97;;
23555;SDS011;11956;53.184;8.578;2023-02-28T00:42:11;8.27;;;4.75;;
23555;SDS011;11956;53.184;8.578;2023-02-28T00:45:12;7.75;;;4.25;;
23555;SDS011;11956;53.184;8.578;2023-02-28T00:48:13;9.68;;;4.68;;
23555;SDS011;11956;53.184;8.578;2023-02-28T00:51:14;7.45;;;3.90;;
23555;SDS011;11956;53.184;8.578;2023-02-28T00:54:15;7.10;;;4.03;;
23555;SDS011;11956;53.184;8.578;2023-02-28T00:57:16;9.30;;;4.88;;
23555;SDS011;11956;53.184;8.578;2023-02-28T01:00:17;7.70;;;4.57;;
23555;SDS011;11956;53.184;8.578;2023-02-28T01:03:19;10.30;;;4.40;;
23555;SDS011;11956;53.184;8.578;2023-02-28T01:06:21;8.63;;;4.57;;
23555;SDS011;11956;53.184;8.578;2023-02-28T01:09:22;7.85;;;4.40;;
23555;SDS011;11956;53.184;8.578;2023-02-28T01:12:23;7.63;;;4.28;;
23555;SDS011;11956;53.184;8.578;2023-02-28T01:15:24;8.23;;;4.13;;
23555;SDS011;11956;53.184;8.578;2023-02-28T01:18:25;9.30;;;4.60;;
23555;SDS011;11956;53.184;8.578;2023-02-28T01:21:26;7.45;;;4.22;;
23555;SDS011;11956;53.184;8.578;2023-02-28T01:24:26;10.70;;;4.22;;
23555;SDS011;11956;53.184;8.578;2023-02-28T01:27:27;7.75;;;4.00;;
23555;SDS011;11956;53.184;8.578;2023-02-28T01:30:29;7.43;;;3.83;;
23555;SDS011;11956;53.184;8.578;2023-02-28T01:33:30;7.88;;;4.05;;
23555;SDS011;11956;53.184;8.578;2023-02-28T01:36:33;5.53;;;3.87;;
23555;SDS011;11956;53.184;8.578;2023-02-28T01:39:34;7.97;;;4.18;;
23555;SDS011;11956;53.184;8.578;2023-02-28T01:42:35;9.55;;;4.75;;
23555;SDS011;11956;53.184;8.578;2023-02-28T01:45:35;5.57;;;3.95;;
23555;SDS011;11956;53.184;8.578;2023-02-28T01:48:42;7.47;;;4.43;;
23555;SDS011;11956;53.184;8.578;2023-02-28T01:51:55;8.45;;;4.53;;
23555;SDS011;11956;53.184;8.578;2023-02-28T01:54:59;11.77;;;5.07;;
23555;SDS011;11956;53.184;8.578;2023-02-28T01:58:04;9.57;;;4.88;;
23555;SDS011;11956;53.184;8.578;2023-02-28T02:01:07;9.00;;;4.47;;
23555;SDS011;11956;53.184;8.578;2023-02-28T02:04:08;6.93;;;4.00;;
23555;SDS011;11956;53.184;8.578;2023-02-28T02:07:09;8.90;;;4.50;;
23555;SDS011;11956;53.184;8.578;2023-02-28T02:24:03;8.48;;;4.88;;
23555;SDS011;11956;53.184;8.578;2023-02-28T02:27:30;10.02;;;4.88;;
23555;SDS011;11956;53.184;8.578;2023-02-28T02:38:19;8.13;;;4.70;;
23555;SDS011;11956;53.184;8.578;2023-02-28T02:41:54;6.30;;;4.30;;
23555;SDS011;11956;53.184;8.578;2023-02-28T02:45:03;9.15;;;4.95;;
23555;SDS011;11956;53.184;8.578;2023-02-28T02:48:11;10.82;;;5.35;;
23555;SDS011;11956;53.184;8.578;2023-02-28T02:51:18;7.35;;;4.57;;
23555;SDS011;11956;53.184;8.578;2023-02-28T02:54:23;8.40;;;4.75;;
23555;SDS011;11956;53.184;8.578;2023-02-28T02:57:35;9.02;;;4.75;;
23555;SDS011;11956;53.184;8.578;2023-02-28T03:00:47;9.02;;;4.63;;
23555;SDS011;11956;53.184;8.578;2023-02-28T03:03:55;7.57;;;4.70;;
23555;SDS011;11956;53.184;8.578;2023-02-28T03:07:18;9.07;;;5.03;;
23555;SDS011;11956;53.184;8.578;2023-02-28T03:10:27;7.28;;;5.00;;
23555;SDS011;11956;53.184;8.578;2023-02-28T03:20:17;7.10;;;4.60;;
23555;SDS011;11956;53.184;8.578;2023-02-28T03:23:41;8.15;;;5.38;;
23555;SDS011;11956;53.184;8.578;2023-02-28T03:26:52;10.55;;;5.28;;
23555;SDS011;11956;53.184;8.578;2023-02-28T03:33:38;10.73;;;5.75;;
23555;SDS011;11956;53.184;8.578;2023-02-28T03:36:55;12.65;;;5.65;;
23555;SDS011;11956;53.184;8.578;2023-02-28T03:40:16;8.00;;;5.35;;
23555;SDS011;11956;53.184;8.578;2023-02-28T03:43:25;11.80;;;6.38;;
23555;SDS011;11956;53.184;8.578;2023-02-28T03:46:33;13.18;;;6.15;;
23555;SDS011;11956;53.184;8.578;2023-02-28T03:49:43;12.23;;;7.00;;
23555;SDS011;11956;53.184;8.578;2023-02-28T03:53:02;13.85;;;7.78;;
23555;SDS011;11956;53.184;8.578;2023-02-28T03:56:43;15.70;;;7.30;;
23555;SDS011;11956;53.184;8.578;2023-02-28T03:59:55;10.45;;;6.55;;
23555;SDS011;11956;53.184;8.578;2023-02-28T04:03:12;10.93;;;6.78;;
23555;SDS011;11956;53.184;8.578;2023-02-28T04:06:21;10.75;;;5.53;;
23555;SDS011;11956;53.184;8.578;2023-02-28T04:09:23;10.32;;;5.68;;
23555;SDS011;11956;53.184;8.578;2023-02-28T04:12:24;14.15;;;6.55;;
23555;SDS011;11956;53.184;8.578;2023-02-28T04:15:25;10.40;;;5.72;;
23555;SDS011;11956;53.184;8.578;2023-02-28T04:18:27;10.75;;;6.55;;
23555;SDS011;11956;53.184;8.578;2023-02-28T04:21:28;8.32;;;5.57;;
23555;SDS011;11956;53.184;8.578;2023-02-28T04:24:30;7.70;;;5.05;;
23555;SDS011;11956;53.184;8.578;2023-02-28T04:27:30;13.77;;;7.60;;
23555;SDS011;11956;53.184;8.578;2023-02-28T04:30:31;11.35;;;7.03;;
23555;SDS011;11956;53.184;8.578;2023-02-28T04:33:32;14.93;;;7.35;;
23555;SDS011;11956;53.184;8.578;2023-02-28T04:36:33;12.70;;;7.70;;
23555;SDS011;11956;53.184;8.578;2023-02-28T04:39:35;12.40;;;6.93;;
23555;SDS011;11956;53.184;8.578;2023-02-28T04:42:37;12.98;;;7.45;;
23555;SDS011;11956;53.184;8.578;2023-02-28T04:45:37;12.25;;;7.63;;
23555;SDS011;11956;53.184;8.578;2023-02-28T04:48:39;13.57;;;7.03;;
23555;SDS011;11956;53.184;8.578;2023-02-28T04:51:40;11.77;;;7.40;;
23555;SDS011;11956;53.184;8.578;2023-02-28T04:54:42;11.93;;;6.70;;
23555;SDS011;11956;53.184;8.578;2023-02-28T04:57:43;13.07;;;7.13;;
23555;SDS011;11956;53.184;8.578;2023-02-28T05:00:44;11.50;;;6.60;;
23555;SDS011;11956;53.184;8.578;2023-02-28T05:03:45;13.40;;;6.75;;
23555;SDS011;11956;53.184;8.578;2023-02-28T05:06:46;13.30;;;6.63;;
23555;SDS011;11956;53.184;8.578;2023-02-28T05:09:47;10.02;;;6.15;;
23555;SDS011;11956;53.184;8.578;2023-02-28T05:12:48;14.07;;;6.20;;
23555;SDS011;11956;53.184;8.578;2023-02-28T05:15:49;11.15;;;6.60;;
23555;SDS011;11956;53.184;8.578;2023-02-28T05:18:50;10.88;;;6.63;;
23555;SDS011;11956;53.184;8.578;2023-02-28T05:21:52;13.23;;;6.70;;
23555;SDS011;11956;53.184;8.578;2023-02-28T05:24:54;10.25;;;6.28;;
23555;SDS011;11956;53.184;8.578;2023-02-28T05:27:55;11.15;;;6.13;;
23555;SDS011;11956;53.184;8.578;2023-02-28T05:30:56;15.00;;;6.72;;
23555;SDS011;11956;53.184;8.578;2023-02-28T05:33:57;12.25;;;6.57;;
23555;SDS011;11956;53.184;8.578;2023-02-28T05:36:58;11.07;;;6.30;;
23555;SDS011;11956;53.184;8.578;2023-02-28T05:39:58;10.05;;;5.97;;
23555;SDS011;11956;53.184;8.578;2023-02-28T05:43:00;12.70;;;6.13;;
23555;SDS011;11956;53.184;8.578;2023-02-28T05:46:08;10.75;;;5.80;;
23555;SDS011;11956;53.184;8.578;2023-02-28T05:49:10;10.75;;;5.88;;
23555;SDS011;11956;53.184;8.578;2023-02-28T05:52:11;12.82;;;6.05;;
23555;SDS011;11956;53.184;8.578;2023-02-28T05:55:12;11.85;;;6.43;;
23555;SDS011;11956;53.184;8.578;2023-02-28T05:58:13;10.38;;;5.82;;
23555;SDS011;11956;53.184;8.578;2023-02-28T06:04:48;11.73;;;6.18;;
23555;SDS011;11956;53.184;8.578;2023-02-28T06:07:49;12.05;;;6.47;;
23555;SDS011;11956;53.184;8.578;2023-02-28T06:10:50;10.93;;;5.65;;
23555;SDS011;11956;53.184;8.578;2023-02-28T06:13:52;9.23;;;5.60;;
23555;SDS011;11956;53.184;8.578;2023-02-28T06:16:55;12.93;;;6.65;;
23555;SDS011;11956;53.184;8.578;2023-02-28T06:19:57;9.02;;;5.65;;
23555;SDS011;11956;53.184;8.578;2023-02-28T06:22:58;12.57;;;6.00;;
23555;SDS011;11956;53.184;8.578;2023-02-28T06:25:59;10.65;;;5.70;;
23555;SDS011;11956;53.184;8.578;2023-02-28T06:29:00;13.85;;;6.53;;
23555;SDS011;11956;53.184;8.578;2023-02-28T06:32:01;10.85;;;6.13;;
23555;SDS011;11956;53.184;8.578;2023-02-28T06:35:02;11.82;;;6.72;;
23555;SDS011;11956;53.184;8.578;2023-02-28T06:38:04;10.15;;;6.25;;
23555;SDS011;11956;53.184;8.578;2023-02-28T06:41:05;10.75;;;6.05;;
23555;SDS011;11956;53.184;8.578;2023-02-28T06:44:13;9.43;;;5.97;;
23555;SDS011;11956;53.184;8.578;2023-02-28T06:47:17;9.63;;;6.20;;
23555;SDS011;11956;53.184;8.578;2023-02-28T06:50:19;11.23;;;6.30;;
23555;SDS011;11956;53.184;8.578;2023-02-28T06:53:20;10.35;;;6.40;;
23555;SDS011;11956;53.184;8.578;2023-02-28T06:56:22;10.48;;;5.85;;
23555;SDS011;11956;53.184;8.578;2023-02-28T06:59:23;12.73;;;6.15;;
23555;SDS011;11956;53.184;8.578;2023-02-28T07:02:27;15.68;;;6.93;;
23555;SDS011;11956;53.184;8.578;2023-02-28T07:05:28;9.88;;;5.80;;
23555;SDS011;11956;53.184;8.578;2023-02-28T07:08:29;9.68;;;5.78;;
23555;SDS011;11956;53.184;8.578;2023-02-28T07:11:31;22.00;;;12.93;;
23555;SDS011;11956;53.184;8.578;2023-02-28T07:14:32;7.30;;;4.95;;
23555;SDS011;11956;53.184;8.578;2023-02-28T07:17:33;9.10;;;4.57;;
23555;SDS011;11956;53.184;8.578;2023-02-28T07:20:34;7.00;;;4.93;;
23555;SDS011;11956;53.184;8.578;2023-02-28T07:23:36;7.57;;;4.53;;
23555;SDS011;11956;53.184;8.578;2023-02-28T07:26:41;7.78;;;4.40;;
23555;SDS011;11956;53.184;8.578;2023-02-28T07:29:42;9.75;;;4.88;;
23555;SDS011;11956;53.184;8.578;2023-02-28T07:32:43;6.13;;;4.25;;
23555;SDS011;11956;53.184;8.578;2023-02-28T07:35:44;7.18;;;4.45;;
23555;SDS011;11956;53.184;8.578;2023-02-28T07:38:45;5.82;;;3.70;;
23555;SDS011;11956;53.184;8.578;2023-02-28T07:41:49;6.25;;;3.63;;
23555;SDS011;11956;53.184;8.578;2023-02-28T07:44:50;9.68;;;4.20;;
23555;SDS011;11956;53.184;8.578;2023-02-28T07:47:53;6.97;;;4.00;;
23555;SDS011;11956;53.184;8.578;2023-02-28T07:50:57;8.05;;;3.95;;
23555;SDS011;11956;53.184;8.578;2023-02-28T07:53:58;5.72;;;3.70;;
23555;SDS011;11956;53.184;8.578;2023-02-28T07:56:59;8.30;;;4.20;;
23555;SDS011;11956;53.184;8.578;2023-02-28T08:00:01;5.03;;;3.45;;
23555;SDS011;11956;53.184;8.578;2023-02-28T08:03:11;4.60;;;3.65;;
23555;SDS011;11956;53.184;8.578;2023-02-28T08:06:18;6.40;;;3.47;;
23555;SDS011;11956;53.184;8.578;2023-02-28T08:09:22;7.13;;;3.83;;
23555;SDS011;11956;53.184;8.578;2023-02-28T08:12:24;5.85;;;3.30;;
23555;SDS011;11956;53.184;8.578;2023-02-28T08:15:26;4.93;;;3.30;;
23555;SDS011;11956;53.184;8.578;2023-02-28T08:18:28;9.35;;;3.85;;
23555;SDS011;11956;53.184;8.578;2023-02-28T08:21:29;5.32;;;3.55;;
23555;SDS011;11956;53.184;8.578;2023-02-28T08:24:31;5.13;;;3.42;;
23555;SDS011;11956;53.184;8.578;2023-02-28T08:27:34;6.37;;;3.87;;
23555;SDS011;11956;53.184;8.578;2023-02-28T08:30:36;6.55;;;3.92;;
23555;SDS011;11956;53.184;8.578;2023-02-28T08:33:37;5.13;;;3.40;;
23555;SDS011;11956;53.184;8.578;2023-02-28T08:36:39;6.47;;;3.40;;
23555;SDS011;11956;53.184;8.578;2023-02-28T08:39:40;5.30;;;3.33;;
23555;SDS011;11956;53.184;8.578;2023-02-28T08:42:41;6.80;;;3.20;;
23555;SDS011;11956;53.184;8.578;2023-02-28T08:45:42;4.47;;;3.45;;
23555;SDS011;11956;53.184;8.578;2023-02-28T08:48:43;3.50;;;2.88;;
23555;SDS011;11956;53.184;8.578;2023-02-28T08:51:44;4.38;;;3.15;;
23555;SDS011;11956;53.184;8.578;2023-02-28T08:54:46;5.35;;;2.80;;
23555;SDS011;11956;53.184;8.578;2023-02-28T08:57:47;5.13;;;3.17;;
23555;SDS011;11956;53.184;8.578;2023-02-28T09:00:48;5.55;;;2.60;;
23555;SDS011;11956;53.184;8.578;2023-02-28T09:03:49;6.47;;;3.17;;
23555;SDS011;11956;53.184;8.578;2023-02-28T09:06:51;5.47;;;2.90;;
23555;SDS011;11956;53.184;8.578;2023-02-28T09:09:52;3.38;;;3.03;;
23555;SDS011;11956;53.184;8.578;2023-02-28T09:12:56;4.35;;;2.55;;
23555;SDS011;11956;53.184;8.578;2023-02-28T09:15:57;3.55;;;2.20;;
23555;SDS011;11956;53.184;8.578;2023-02-28T09:19:00;4.18;;;2.80;;
23555;SDS011;11956;53.184;8.578;2023-02-28T09:22:01;4.20;;;2.20;;
23555;SDS011;11956;53.184;8.578;2023-02-28T09:25:02;4.38;;;1.90;;
23555;SDS011;11956;53.184;8.578;2023-02-28T09:28:03;9.90;;;2.42;;
23555;SDS011;11956;53.184;8.578;2023-02-28T09:31:04;4.22;;;1.90;;
23555;SDS011;11956;53.184;8.578;2023-02-28T09:34:05;5.53;;;1.80;;
23555;SDS011;11956;53.184;8.578;2023-02-28T09:37:06;4.47;;;1.60;;
23555;SDS011;11956;53.184;8.578;2023-02-28T09:40:08;4.35;;;2.10;;
23555;SDS011;11956;53.184;8.578;2023-02-28T09:43:11;1.77;;;1.10;;
23555;SDS011;11956;53.184;8.578;2023-02-28T09:49:31;2.83;;;1.60;;
23555;SDS011;11956;53.184;8.578;2023-02-28T09:52:41;5.38;;;1.63;;
23555;SDS011;11956;53.184;8.578;2023-02-28T09:55:47;1.55;;;0.90;;
23555;SDS011;11956;53.184;8.578;2023-02-28T09:58:54;2.13;;;1.20;;
23555;SDS011;11956;53.184;8.578;2023-02-28T10:05:56;1.27;;;0.98;;
23555;SDS011;11956;53.184;8.578;2023-02-28T10:09:19;1.95;;;1.02;;
23555;SDS011;11956;53.184;8.578;2023-02-28T10:12:26;5.72;;;1.58;;
23555;SDS011;11956;53.184;8.578;2023-02-28T10:15:30;3.33;;;1.30;;
23555;SDS011;11956;53.184;8.578;2023-02-28T10:18:39;4.32;;;1.40;;
23555;SDS011;11956;53.184;8.578;2023-02-28T10:21:54;3.23;;;1.70;;
23555;SDS011;11956;53.184;8.578;2023-02-28T10:25:05;4.15;;;1.25;;
23555;SDS011;11956;53.184;8.578;2023-02-28T10:28:25;2.27;;;1.30;;
23555;SDS011;11956;53.184;8.578;2023-02-28T10:31:33;2.53;;;1.02;;
23555;SDS011;11956;53.184;8.578;2023-02-28T10:34:33;2.72;;;1.40;;
23555;SDS011;11956;53.184;8.578;2023-02-28T10:37:37;3.08;;;1.17;;
23555;SDS011;11956;53.184;8.578;2023-02-28T10:40:39;1.98;;;1.00;;
23555;SDS011;11956;53.184;8.578;2023-02-28T10:43:40;3.08;;;1.23;;
23555;SDS011;11956;53.184;8.578;2023-02-28T10:46:43;3.80;;;1.63;;
23555;SDS011;11956;53.184;8.578;2023-02-28T10:49:48;2.67;;;1.55;;
23555;SDS011;11956;53.184;8.578;2023-02-28T10:52:52;3.25;;;1.55;;
23555;SDS011;11956;53.184;8.578;2023-02-28T10:56:04;3.90;;;2.00;;
23555;SDS011;11956;53.184;8.578;2023-02-28T11:02:29;6.50;;;1.88;;
23555;SDS011;11956;53.184;8.578;2023-02-28T11:05:36;2.22;;;1.58;;
23555;SDS011;11956;53.184;8.578;2023-02-28T11:08:43;4.32;;;1.65;;
23555;SDS011;11956;53.184;8.578;2023-02-28T11:11:47;3.85;;;1.65;;
23555;SDS011;11956;53.184;8.578;2023-02-28T11:15:00;2.63;;;1.35;;
23555;SDS011;11956;53.184;8.578;2023-02-28T11:21:18;6.70;;;2.05;;
23555;SDS011;11956;53.184;8.578;2023-02-28T11:24:35;5.15;;;2.03;;
23555;SDS011;11956;53.184;8.578;2023-02-28T11:27:43;3.70;;;2.25;;
23555;SDS011;11956;53.184;8.578;2023-02-28T11:31:01;4.30;;;1.60;;
23555;SDS011;11956;53.184;8.578;2023-02-28T11:34:07;5.95;;;1.77;;
23555;SDS011;11956;53.184;8.578;2023-02-28T11:37:27;3.05;;;1.75;;
23555;SDS011;11956;53.184;8.578;2023-02-28T11:46:58;2.63;;;1.25;;
23555;SDS011;11956;53.184;8.578;2023-02-28T11:50:40;3.80;;;1.30;;
23555;SDS011;11956;53.184;8.578;2023-02-28T11:57:35;2.72;;;1.80;;
23555;SDS011;11956;53.184;8.578;2023-02-28T12:08:36;3.40;;;1.80;;
23555;SDS011;11956;53.184;8.578;2023-02-28T12:18:17;5.63;;;2.92;;
23555;SDS011;11956;53.184;8.578;2023-02-28T12:27:59;5.40;;;2.70;;
23555;SDS011;11956;53.184;8.578;2023-02-28T12:31:01;3.50;;;1.67;;
23555;SDS011;11956;53.184;8.578;2023-02-28T12:34:46;2.35;;;1.52;;
23555;SDS011;11956;53.184;8.578;2023-02-28T12:37:56;3.70;;;1.65;;
23555;SDS011;11956;53.184;8.578;2023-02-28T12:41:24;4.03;;;1.77;;
23555;SDS011;11956;53.184;8.578;2023-02-28T12:44:51;5.13;;;1.88;;
23555;SDS011;11956;53.184;8.578;2023-02-28T12:48:05;1.95;;;1.30;;
23555;SDS011;11956;53.184;8.578;2023-02-28T12:51:11;4.72;;;1.55;;
23555;SDS011;11956;53.184;8.578;2023-02-28T13:01:12;2.35;;;1.33;;
23555;SDS011;11956;53.184;8.578;2023-02-28T13:17:38;4.47;;;1.30;;
23555;SDS011;11956;53.184;8.578;2023-02-28T13:20:46;2.35;;;1.13;;
23555;SDS011;11956;53.184;8.578;2023-02-28T13:30:00;3.38;;;1.88;;
23555;SDS011;11956;53.184;8.578;2023-02-28T13:36:50;2.40;;;1.20;;
23555;SDS011;11956;53.184;8.578;2023-02-28T13:40:33;3.70;;;1.10;;
23555;SDS011;11956;53.184;8.578;2023-02-28T13:54:07;2.70;;;1.38;;
23555;SDS011;11956;53.184;8.578;2023-02-28T14:07:54;2.35;;;1.10;;
23555;SDS011;11956;53.184;8.578;2023-02-28T14:11:06;2.78;;;1.17;;
23555;SDS011;11956;53.184;8.578;2023-02-28T14:17:36;2.88;;;1.45;;
23555;SDS011;11956;53.184;8.578;2023-02-28T14:20:37;2.75;;;1.33;;
23555;SDS011;11956;53.184;8.578;2023-02-28T14:37:23;2.90;;;1.50;;
23555;SDS011;11956;53.184;8.578;2023-02-28T14:40:33;3.17;;;1.48;;
23555;SDS011;11956;53.184;8.578;2023-02-28T14:43:35;2.42;;;1.30;;
23555;SDS011;11956;53.184;8.578;2023-02-28T14:46:37;4.07;;;1.45;;
23555;SDS011;11956;53.184;8.578;2023-02-28T14:49:44;4.75;;;1.48;;
23555;SDS011;11956;53.184;8.578;2023-02-28T14:52:48;4.85;;;1.70;;
23555;SDS011;11956;53.184;8.578;2023-02-28T14:55:53;2.20;;;1.52;;
23555;SDS011;11956;53.184;8.578;2023-02-28T14:58:55;2.47;;;1.45;;
23555;SDS011;11956;53.184;8.578;2023-02-28T15:02:17;3.45;;;1.50;;
23555;SDS011;11956;53.184;8.578;2023-02-28T15:05:34;2.42;;;1.15;;
23555;SDS011;11956;53.184;8.578;2023-02-28T15:08:35;2.05;;;1.45;;
23555;SDS011;11956;53.184;8.578;2023-02-28T15:11:36;3.95;;;1.80;;
23555;SDS011;11956;53.184;8.578;2023-02-28T15:14:39;3.13;;;1.52;;
23555;SDS011;11956;53.184;8.578;2023-02-28T15:17:44;4.50;;;1.50;;
23555;SDS011;11956;53.184;8.578;2023-02-28T15:20:50;5.40;;;2.47;;
23555;SDS011;11956;53.184;8.578;2023-02-28T15:23:53;3.92;;;1.77;;
23555;SDS011;11956;53.184;8.578;2023-02-28T15:27:03;4.22;;;1.83;;
23555;SDS011;11956;53.184;8.578;2023-02-28T15:30:08;3.78;;;1.55;;
23555;SDS011;11956;53.184;8.578;2023-02-28T15:33:19;2.42;;;1.50;;
23555;SDS011;11956;53.184;8.578;2023-02-28T15:36:25;1.90;;;1.27;;
23555;SDS011;11956;53.184;8.578;2023-02-28T15:39:33;2.08;;;1.30;;
23555;SDS011;11956;53.184;8.578;2023-02-28T15:46:09;2.33;;;1.20;;
23555;SDS011;11956;53.184;8.578;2023-02-28T15:49:17;3.05;;;1.40;;
23555;SDS011;11956;53.184;8.578;2023-02-28T15:52:22;4.30;;;1.75;;
23555;SDS011;11956;53.184;8.578;2023-02-28T15:55:40;3.92;;;1.63;;
23555;SDS011;11956;53.184;8.578;2023-02-28T15:58:42;3.60;;;1.40;;
23555;SDS011;11956;53.184;8.578;2023-02-28T16:01:43;3.50;;;1.60;;
23555;SDS011;11956;53.184;8.578;2023-02-28T16:04:58;2.97;;;1.35;;
23555;SDS011;11956;53.184;8.578;2023-02-28T16:11:16;2.25;;;1.50;;
23555;SDS011;11956;53.184;8.578;2023-02-28T16:14:24;2.80;;;1.35;;
23555;SDS011;11956;53.184;8.578;2023-02-28T16:17:28;2.40;;;1.50;;
23555;SDS011;11956;53.184;8.578;2023-02-28T16:20:33;3.10;;;1.50;;
23555;SDS011;11956;53.184;8.578;2023-02-28T16:23:34;2.88;;;1.45;;
23555;SDS011;11956;53.184;8.578;2023-02-28T16:26:35;3.20;;;1.58;;
23555;SDS011;11956;53.184;8.578;2023-02-28T16:29:39;4.82;;;1.90;;
23555;SDS011;11956;53.184;8.578;2023-02-28T16:32:40;4.63;;;1.70;;
23555;SDS011;11956;53.184;8.578;2023-02-28T16:35:42;2.10;;;1.42;;
23555;SDS011;11956;53.184;8.578;2023-02-28T16:38:43;3.28;;;1.80;;
23555;SDS011;11956;53.184;8.578;2023-02-28T16:41:44;3.30;;;1.80;;
23555;SDS011;11956;53.184;8.578;2023-02-28T16:44:47;2.88;;;1.48;;
23555;SDS011;11956;53.184;8.578;2023-02-28T16:47:48;3.05;;;1.48;;
23555;SDS011;11956;53.184;8.578;2023-02-28T16:50:50;3.45;;;1.52;;
23555;SDS011;11956;53.184;8.578;2023-02-28T16:53:51;3.65;;;1.80;;
23555;SDS011;11956;53.184;8.578;2023-02-28T16:56:52;4.28;;;1.60;;
23555;SDS011;11956;53.184;8.578;2023-02-28T16:59:53;2.97;;;2.00;;
23555;SDS011;11956;53.184;8.578;2023-02-28T17:02:54;8.05;;;2.13;;
23555;SDS011;11956;53.184;8.578;2023-02-28T17:05:56;5.10;;;1.92;;
23555;SDS011;11956;53.184;8.578;2023-02-28T17:08:57;3.75;;;1.80;;
23555;SDS011;11956;53.184;8.578;2023-02-28T17:11:59;5.30;;;1.75;;
23555;SDS011;11956;53.184;8.578;2023-02-28T17:15:00;6.90;;;2.60;;
23555;SDS011;11956;53.184;8.578;2023-02-28T17:18:01;4.20;;;2.00;;
23555;SDS011;11956;53.184;8.578;2023-02-28T17:21:03;8.43;;;2.13;;
23555;SDS011;11956;53.184;8.578;2023-02-28T17:24:09;4.25;;;2.38;;
23555;SDS011;11956;53.184;8.578;2023-02-28T17:27:12;7.35;;;3.83;;
23555;SDS011;11956;53.184;8.578;2023-02-28T17:33:15;8.63;;;3.38;;
23555;SDS011;11956;53.184;8.578;2023-02-28T17:36:17;8.85;;;3.67;;
23555;SDS011;11956;53.184;8.578;2023-02-28T17:39:25;6.90;;;4.20;;
23555;SDS011;11956;53.184;8.578;2023-02-28T17:42:27;6.63;;;4.40;;
23555;SDS011;11956;53.184;8.578;2023-02-28T17:45:28;12.93;;;5.65;;
23555;SDS011;11956;53.184;8.578;2023-02-28T17:48:29;6.53;;;3.28;;
23555;SDS011;11956;53.184;8.578;2023-02-28T17:51:30;3.38;;;2.13;;
23555;SDS011;11956;53.184;8.578;2023-02-28T17:54:31;5.07;;;2.60;;
23555;SDS011;11956;53.184;8.578;2023-02-28T17:57:32;6.15;;;3.10;;
23555;SDS011;11956;53.184;8.578;2023-02-28T18:00:33;6.38;;;3.13;;
23555;SDS011;11956;53.184;8.578;2023-02-28T18:03:34;5.40;;;2.67;;
23555;SDS011;11956;53.184;8.578;2023-02-28T18:06:42;6.65;;;2.47;;
23555;SDS011;11956;53.184;8.578;2023-02-28T18:09:47;5.88;;;2.65;;
23555;SDS011;11956;53.184;8.578;2023-02-28T18:12:49;6.75;;;3.10;;
23555;SDS011;11956;53.184;8.578;2023-02-28T18:15:51;7.65;;;3.85;;
23555;SDS011;11956;53.184;8.578;2023-02-28T18:18:52;9.27;;;2.90;;
23555;SDS011;11956;53.184;8.578;2023-02-28T18:21:53;4.88;;;2.70;;
23555;SDS011;11956;53.184;8.578;2023-02-28T18:24:54;7.85;;;3.25;;
23555;SDS011;11956;53.184;8.578;2023-02-28T18:27:55;38.40;;;16.52;;
23555;SDS011;11956;53.184;8.578;2023-02-28T18:31:06;37.60;;;16.48;;
23555;SDS011;11956;53.184;8.578;2023-02-28T18:34:08;27.48;;;10.45;;
23555;SDS011;11956;53.184;8.578;2023-02-28T18:37:09;12.55;;;8.95;;
23555;SDS011;11956;53.184;8.578;2023-02-28T18:40:11;15.85;;;8.82;;
23555;SDS011;11956;53.184;8.578;2023-02-28T18:43:13;10.27;;;6.43;;
23555;SDS011;11956;53.184;8.578;2023-02-28T18:46:15;7.85;;;5.30;;
23555;SDS011;11956;53.184;8.578;2023-02-28T18:49:18;6.18;;;4.38;;
23555;SDS011;11956;53.184;8.578;2023-02-28T18:52:20;6.80;;;4.13;;
23555;SDS011;11956;53.184;8.578;2023-02-28T18:55:22;5.80;;;3.00;;
23555;SDS011;11956;53.184;8.578;2023-02-28T18:58:23;4.30;;;2.53;;
23555;SDS011;11956;53.184;8.578;2023-02-28T19:01:24;4.35;;;2.13;;
23555;SDS011;11956;53.184;8.578;2023-02-28T19:04:30;4.57;;;2.25;;
23555;SDS011;11956;53.184;8.578;2023-02-28T19:07:31;6.30;;;2.97;;
23555;SDS011;11956;53.184;8.578;2023-02-28T19:10:36;4.70;;;2.60;;
23555;SDS011;11956;53.184;8.578;2023-02-28T19:13:39;6.55;;;3.40;;
23555;SDS011;11956;53.184;8.578;2023-02-28T19:16:41;10.63;;;3.92;;
23555;SDS011;11956;53.184;8.578;2023-02-28T19:19:42;6.18;;;3.30;;
23555;SDS011;11956;53.184;8.578;2023-02-28T19:22:43;6.78;;;3.55;;
23555;SDS011;11956;53.184;8.578;2023-02-28T19:25:44;6.90;;;4.28;;
23555;SDS011;11956;53.184;8.578;2023-02-28T19:28:45;6.80;;;3.53;;
23555;SDS011;11956;53.184;8.578;2023-02-28T19:31:47;5.63;;;2.80;;
23555;SDS011;11956;53.184;8.578;2023-02-28T19:34:48;6.78;;;4.13;;
23555;SDS011;11956;53.184;8.578;2023-02-28T19:37:48;7.88;;;3.83;;
23555;SDS011;11956;53.184;8.578;2023-02-28T19:41:05;4.10;;;2.20;;
23555;SDS011;11956;53.184;8.578;2023-02-28T19:44:10;5.38;;;2.60;;
23555;SDS011;11956;53.184;8.578;2023-02-28T19:47:11;5.03;;;3.00;;
23555;SDS011;11956;53.184;8.578;2023-02-28T19:50:12;9.15;;;3.83;;
23555;SDS011;11956;53.184;8.578;2023-02-28T19:53:13;6.15;;;3.40;;
23555;SDS011;11956;53.184;8.578;2023-02-28T19:56:14;6.78;;;4.70;;
23555;SDS011;11956;53.184;8.578;2023-02-28T19:59:15;7.30;;;4.40;;
23555;SDS011;11956;53.184;8.578;2023-02-28T20:02:17;6.05;;;3.50;;
23555;SDS011;11956;53.184;8.578;2023-02-28T20:05:19;8.30;;;3.85;;
23555;SDS011;11956;53.184;8.578;2023-02-28T20:08:20;8.18;;;5.20;;
23555;SDS011;11956;53.184;8.578;2023-02-28T20:11:21;13.95;;;6.85;;
23555;SDS011;11956;53.184;8.578;2023-02-28T20:14:22;13.82;;;6.95;;
23555;SDS011;11956;53.184;8.578;2023-02-28T20:17:23;20.50;;;11.02;;
23555;SDS011;11956;53.184;8.578;2023-02-28T20:20:24;18.98;;;10.02;;
23555;SDS011;11956;53.184;8.578;2023-02-28T20:23:26;16.55;;;10.20;;
23555;SDS011;11956;53.184;8.578;2023-02-28T20:26:27;15.25;;;10.20;;
23555;SDS011;11956;53.184;8.578;2023-02-28T20:29:28;14.50;;;9.13;;
23555;SDS011;11956;53.184;8.578;2023-02-28T20:32:28;11.70;;;6.57;;
23555;SDS011;11956;53.184;8.578;2023-02-28T20:35:30;9.63;;;4.72;;
23555;SDS011;11956;53.184;8.578;2023-02-28T20:38:30;10.02;;;5.32;;
23555;SDS011;11956;53.184;8.578;2023-02-28T20:41:31;9.02;;;5.03;;
23555;SDS011;11956;53.184;8.578;2023-02-28T20:44:33;10.55;;;4.90;;
23555;SDS011;11956;53.184;8.578;2023-02-28T20:47:34;11.60;;;6.05;;
23555;SDS011;11956;53.184;8.578;2023-02-28T20:50:35;14.38;;;8.07;;
23555;SDS011;11956;53.184;8.578;2023-02-28T20:53:36;13.85;;;8.52;;
23555;SDS011;11956;53.184;8.578;2023-02-28T20:56:37;60.38;;;23.48;;
23555;SDS011;11956;53.184;8.578;2023-02-28T20:59:38;21.15;;;9.68;;
23555;SDS011;11956;53.184;8.578;2023-02-28T21:02:40;22.23;;;10.60;;
23555;SDS011;11956;53.184;8.578;2023-02-28T21:05:41;14.07;;;7.78;;